createdAt,value
2022-11-02T00:01:03.049Z,14.30
2022-11-02T00:03:30.979Z,14.30
2022-11-02T00:05:59.064Z,14.30
2022-11-02T00:08:27.023Z,14.30
2022-11-02T00:10:54.921Z,14.30
2022-11-02T00:13:22.864Z,14.30
2022-11-02T00:15:52.297Z,14.30
2022-11-02T00:18:20.286Z,14.30
2022-11-02T00:20:48.345Z,14.40
2022-11-02T00:23:17.015Z,14.40
2022-11-02T00:25:48.593Z,14.40
2022-11-02T00:28:17.551Z,14.40
2022-11-02T00:30:45.888Z,14.50
2022-11-02T00:33:15.127Z,14.50
2022-11-02T00:35:45.090Z,14.50
2022-11-02T00:38:13.031Z,14.50
2022-11-02T00:40:41.211Z,14.50
2022-11-02T00:43:09.104Z,14.60
2022-11-02T00:45:36.981Z,14.50
2022-11-02T00:48:05.831Z,14.50
2022-11-02T00:50:35.343Z,14.50
2022-11-02T00:53:03.354Z,14.50
2022-11-02T00:55:31.346Z,14.50
2022-11-02T00:57:59.380Z,14.50
2022-11-02T01:00:27.298Z,14.50
2022-11-02T01:02:55.257Z,14.40
2022-11-02T01:05:23.213Z,14.40
2022-11-02T01:07:53.637Z,14.40
2022-11-02T01:10:21.532Z,14.40
2022-11-02T01:12:49.919Z,14.40
2022-11-02T01:15:18.331Z,14.40
2022-11-02T01:17:46.305Z,14.40
2022-11-02T01:20:14.427Z,14.40
2022-11-02T01:22:42.399Z,14.40
2022-11-02T01:25:11.770Z,14.40
2022-11-02T01:27:39.955Z,14.40
2022-11-02T01:30:09.017Z,14.40
2022-11-02T01:32:37.176Z,14.40
2022-11-02T01:35:05.607Z,14.30
2022-11-02T01:37:33.511Z,14.20
2022-11-02T01:40:01.464Z,14.10
2022-11-02T01:42:30.688Z,13.90
2022-11-02T01:44:58.712Z,13.90
2022-11-02T01:47:29.402Z,13.70
2022-11-02T01:50:00.156Z,13.60
2022-11-02T01:52:33.218Z,13.50
2022-11-02T01:55:07.929Z,13.50
2022-11-02T01:57:39.043Z,13.40
2022-11-02T02:00:09.852Z,13.30
2022-11-02T02:02:42.503Z,13.30
2022-11-02T02:05:11.826Z,13.20
2022-11-02T02:07:41.267Z,13.10
2022-11-02T02:10:10.356Z,13.00
2022-11-02T02:12:42.731Z,13.00
2022-11-02T02:15:11.775Z,12.90
2022-11-02T02:17:47.845Z,12.90
2022-11-02T02:20:30.285Z,12.90
2022-11-02T02:23:14.999Z,12.90
2022-11-02T02:26:05.171Z,12.80
2022-11-02T02:28:42.272Z,12.80
2022-11-02T02:31:15.743Z,12.80
2022-11-02T02:33:50.412Z,12.80
2022-11-02T02:36:25.632Z,12.80
2022-11-02T02:39:03.433Z,12.80
2022-11-02T02:41:39.081Z,12.80
2022-11-02T02:44:12.227Z,12.70
2022-11-02T02:46:46.614Z,12.80
2022-11-02T02:49:19.997Z,12.70
2022-11-02T02:51:48.711Z,12.70
2022-11-02T02:54:20.891Z,12.80
2022-11-02T02:56:52.089Z,12.80
2022-11-02T02:59:25.769Z,12.70
2022-11-02T03:01:55.682Z,12.80
2022-11-02T03:04:23.899Z,12.80
2022-11-02T03:06:55.660Z,12.70
2022-11-02T03:09:30.674Z,12.70
2022-11-02T03:12:09.752Z,12.70
2022-11-02T03:14:47.572Z,12.70
2022-11-02T03:17:18.513Z,12.70
2022-11-02T03:19:52.195Z,12.80
2022-11-02T03:22:31.292Z,12.80
2022-11-02T03:25:04.867Z,12.80
2022-11-02T03:27:40.841Z,12.70
2022-11-02T03:30:14.549Z,12.80
2022-11-02T03:32:48.760Z,12.80
2022-11-02T03:35:17.711Z,12.80
2022-11-02T03:37:52.502Z,12.80
2022-11-02T03:40:25.886Z,12.70
2022-11-02T03:42:55.414Z,12.70
2022-11-02T03:45:28.232Z,12.70
2022-11-02T03:48:00.355Z,12.80
2022-11-02T03:50:28.634Z,12.80
2022-11-02T03:53:00.179Z,12.80
2022-11-02T03:55:31.926Z,12.80
2022-11-02T03:58:00.627Z,12.80
2022-11-02T04:00:34.349Z,12.80
2022-11-02T04:03:04.369Z,12.80
2022-11-02T04:05:33.908Z,12.90
2022-11-02T04:08:19.983Z,12.80
2022-11-02T04:11:05.578Z,12.90
2022-11-02T04:13:51.545Z,12.80
2022-11-02T04:16:26.629Z,12.80
2022-11-02T04:19:13.813Z,12.80
2022-11-02T04:22:01.735Z,12.80
2022-11-02T04:24:47.431Z,12.80
2022-11-02T04:27:19.662Z,12.80
2022-11-02T04:29:48.796Z,12.80
2022-11-02T04:32:38.938Z,12.80
2022-11-02T04:35:07.314Z,12.80
2022-11-02T04:38:11.947Z,12.90
2022-11-02T04:40:39.931Z,12.90
2022-11-02T04:43:07.870Z,12.90
2022-11-02T04:45:35.942Z,12.90
2022-11-02T04:48:07.418Z,12.90
2022-11-02T04:50:35.652Z,13.00
2022-11-02T04:53:05.095Z,13.10
2022-11-02T04:55:33.264Z,13.10
2022-11-02T04:58:01.299Z,13.10
2022-11-02T05:00:29.520Z,13.10
2022-11-02T05:02:57.972Z,13.10
2022-11-02T05:05:27.363Z,13.20
2022-11-02T05:07:55.428Z,13.20
2022-11-02T05:10:23.324Z,13.20
2022-11-02T05:12:58.442Z,13.20
2022-11-02T05:15:26.324Z,13.20
2022-11-02T05:17:54.341Z,13.30
2022-11-02T05:20:22.602Z,13.20
2022-11-02T05:22:52.055Z,13.20
2022-11-02T05:25:20.289Z,13.20
2022-11-02T05:27:48.298Z,13.20
2022-11-02T05:30:16.431Z,13.20
2022-11-02T05:32:44.392Z,13.30
2022-11-02T05:35:12.317Z,13.30
2022-11-02T05:37:40.169Z,13.30
2022-11-02T05:40:11.403Z,13.30
2022-11-02T05:42:39.287Z,13.30
2022-11-02T05:45:08.038Z,13.30
2022-11-02T05:47:35.992Z,13.30
2022-11-02T05:50:03.938Z,13.30
2022-11-02T05:52:31.840Z,13.30
2022-11-02T05:54:59.750Z,13.30
2022-11-02T05:57:28.992Z,13.20
2022-11-02T05:59:56.974Z,13.30
2022-11-02T06:02:25.548Z,13.20
2022-11-02T06:04:53.868Z,13.20
2022-11-02T06:07:22.097Z,13.30
2022-11-02T06:09:50.082Z,13.20
2022-11-02T06:12:18.034Z,13.20
2022-11-02T06:14:47.379Z,13.20
2022-11-02T06:17:15.286Z,13.10
2022-11-02T06:19:43.198Z,13.10
2022-11-02T06:22:11.327Z,13.00
2022-11-02T06:24:39.265Z,13.00
2022-11-02T06:27:07.233Z,13.00
2022-11-02T06:29:35.288Z,13.00
2022-11-02T06:32:04.792Z,13.00
2022-11-02T06:34:32.711Z,13.00
2022-11-02T06:37:00.625Z,13.00
2022-11-02T06:39:28.575Z,13.00
2022-11-02T06:41:56.560Z,12.90
2022-11-02T06:44:24.425Z,12.90
2022-11-02T06:46:52.333Z,12.90
2022-11-02T06:49:21.912Z,12.90
2022-11-02T06:51:51.986Z,12.90
2022-11-02T06:54:20.326Z,12.90
2022-11-02T06:56:48.205Z,12.90
2022-11-02T06:59:16.147Z,12.90
2022-11-02T07:01:44.201Z,12.90
2022-11-02T07:04:12.191Z,12.90
2022-11-02T07:06:41.445Z,12.90
2022-11-02T07:09:09.532Z,12.90
2022-11-02T07:11:37.460Z,12.90
2022-11-02T07:14:05.430Z,12.90
2022-11-02T07:16:33.483Z,12.90
2022-11-02T07:19:01.483Z,12.90
2022-11-02T07:21:29.410Z,12.90
2022-11-02T07:23:58.758Z,12.90
2022-11-02T07:26:27.574Z,13.00
2022-11-02T07:28:59.220Z,13.00
2022-11-02T07:31:27.645Z,13.00
2022-11-02T07:33:55.548Z,13.00
2022-11-02T07:36:23.586Z,13.00
2022-11-02T07:38:51.548Z,13.10
2022-11-02T07:41:20.814Z,13.10
2022-11-02T07:43:48.862Z,13.10
2022-11-02T07:46:16.812Z,13.10
2022-11-02T07:48:44.750Z,13.10
2022-11-02T07:51:12.866Z,13.10
2022-11-02T07:53:40.868Z,13.10
2022-11-02T07:56:09.309Z,13.10
2022-11-02T07:58:38.640Z,13.00
2022-11-02T08:01:06.881Z,13.00
2022-11-02T08:03:34.849Z,13.00
2022-11-02T08:06:03.927Z,13.00
2022-11-02T08:08:31.888Z,13.00
2022-11-02T08:11:05.721Z,12.90
2022-11-02T08:13:34.041Z,13.00
2022-11-02T08:16:03.428Z,13.00
2022-11-02T08:18:32.848Z,13.00
2022-11-02T08:21:01.377Z,13.00
2022-11-02T08:23:29.315Z,12.90
2022-11-02T08:26:00.417Z,13.00
2022-11-02T08:28:31.645Z,13.00
2022-11-02T08:31:00.331Z,13.00
2022-11-02T08:33:29.731Z,13.00
2022-11-02T08:36:03.804Z,13.00
2022-11-02T08:38:31.878Z,12.90
2022-11-02T08:40:59.769Z,12.90
2022-11-02T08:43:27.758Z,13.00
2022-11-02T08:46:15.763Z,13.00
2022-11-02T08:48:46.196Z,13.10
2022-11-02T08:51:14.337Z,13.10
2022-11-02T08:53:44.703Z,13.10
2022-11-02T08:56:15.204Z,13.10
2022-11-02T08:58:43.525Z,13.20
2022-11-02T09:01:11.482Z,13.20
2022-11-02T09:03:39.618Z,13.20
2022-11-02T09:06:09.270Z,13.30
2022-11-02T09:08:37.273Z,13.30
2022-11-02T09:11:06.373Z,13.30
2022-11-02T09:13:34.495Z,13.30
2022-11-02T09:16:02.784Z,13.30
2022-11-02T09:18:30.948Z,13.30
2022-11-02T09:21:03.067Z,13.30
2022-11-02T09:23:33.050Z,13.30
2022-11-02T09:26:01.020Z,13.30
2022-11-02T09:28:28.987Z,13.30
2022-11-02T09:30:56.930Z,13.30
2022-11-02T09:33:24.907Z,13.30
2022-11-02T09:35:52.989Z,13.30
2022-11-02T09:38:21.026Z,13.40
2022-11-02T09:41:02.164Z,13.40
2022-11-02T09:43:41.104Z,13.40
2022-11-02T09:46:12.773Z,13.40
2022-11-02T09:48:44.300Z,13.50
2022-11-02T09:51:16.026Z,13.50
2022-11-02T09:53:51.824Z,13.50
2022-11-02T09:56:21.480Z,13.50
2022-11-02T09:58:55.933Z,13.50
2022-11-02T10:01:35.694Z,13.60
2022-11-02T10:04:32.542Z,13.70
2022-11-02T10:07:07.975Z,13.80
2022-11-02T10:09:45.672Z,13.80
2022-11-02T10:12:17.910Z,13.80
2022-11-02T10:14:54.156Z,13.80
2022-11-02T10:17:25.680Z,13.90
2022-11-02T10:19:56.870Z,13.90
2022-11-02T10:22:29.811Z,13.90
2022-11-02T10:24:59.228Z,14.00
2022-11-02T10:27:31.187Z,14.00
2022-11-02T10:30:05.702Z,14.00
2022-11-02T10:32:36.640Z,14.10
2022-11-02T10:35:30.010Z,14.10
2022-11-02T10:38:15.205Z,14.20
2022-11-02T10:40:59.625Z,14.20
2022-11-02T10:43:42.254Z,14.20
2022-11-02T10:46:23.550Z,14.20
2022-11-02T10:49:01.707Z,14.30
2022-11-02T10:51:31.299Z,14.30
2022-11-02T10:53:59.691Z,14.30
2022-11-02T10:56:32.283Z,14.30
2022-11-02T10:59:09.986Z,14.40
2022-11-02T11:01:38.322Z,14.40
2022-11-02T11:04:09.097Z,14.40
2022-11-02T11:06:39.857Z,14.50
2022-11-02T11:09:15.727Z,14.50
2022-11-02T11:11:53.460Z,14.50
2022-11-02T11:20:08.513Z,14.70
2022-11-02T11:22:38.581Z,14.80
2022-11-02T11:25:27.550Z,14.90
2022-11-02T11:27:56.999Z,14.90
2022-11-02T11:30:46.622Z,14.90
2022-11-02T11:33:18.133Z,14.90
2022-11-02T11:35:50.753Z,14.90
2022-11-02T11:38:21.162Z,15.00
2022-11-02T11:40:54.342Z,15.00
2022-11-02T11:43:25.084Z,15.00
2022-11-02T11:46:04.884Z,15.10
2022-11-02T11:48:39.149Z,15.10
2022-11-02T11:51:27.105Z,15.10
2022-11-02T11:54:23.070Z,15.10
2022-11-02T11:56:52.954Z,15.10
2022-11-02T11:59:23.625Z,15.10
2022-11-02T12:01:56.177Z,15.10
2022-11-02T12:04:33.006Z,15.10
2022-11-02T12:07:19.782Z,15.10
2022-11-02T12:09:54.221Z,15.10
2022-11-02T12:12:33.311Z,15.20
2022-11-02T12:15:14.359Z,15.10
2022-11-02T12:17:55.411Z,15.20
2022-11-02T12:20:47.065Z,15.20
2022-11-02T12:23:32.476Z,15.20
2022-11-02T12:26:15.205Z,15.20
2022-11-02T12:28:51.703Z,15.20
2022-11-02T12:31:32.343Z,15.20
2022-11-02T12:34:18.967Z,15.20
2022-11-02T12:40:02.969Z,15.30
2022-11-02T12:42:33.073Z,15.40
2022-11-02T12:45:18.786Z,15.40
2022-11-02T12:47:57.242Z,15.50
2022-11-02T12:50:38.717Z,15.50
2022-11-02T12:53:22.709Z,15.60
2022-11-02T12:55:53.594Z,15.60
2022-11-02T12:58:23.308Z,15.60
2022-11-02T13:00:58.161Z,15.60
2022-11-02T13:03:35.728Z,15.60
2022-11-02T13:06:11.777Z,15.60
2022-11-02T13:08:47.027Z,15.60
2022-11-02T13:11:19.989Z,15.60
2022-11-02T13:13:52.165Z,15.60
2022-11-02T13:16:26.888Z,15.50
2022-11-02T13:18:58.236Z,15.50
2022-11-02T13:21:38.473Z,15.50
2022-11-02T13:24:16.923Z,15.50
2022-11-02T13:26:53.215Z,15.50
2022-11-02T13:29:32.977Z,15.50
2022-11-02T13:32:07.591Z,15.50
2022-11-02T13:34:39.455Z,15.50
2022-11-02T13:37:15.844Z,15.50
2022-11-02T13:39:47.737Z,15.50
2022-11-02T13:42:34.222Z,15.50
2022-11-02T13:45:19.616Z,15.50
2022-11-02T13:48:19.043Z,15.50
2022-11-02T13:50:51.646Z,15.50
2022-11-02T13:53:24.768Z,15.50
2022-11-02T13:55:56.630Z,15.50
2022-11-02T13:58:28.926Z,15.50
2022-11-02T14:01:01.577Z,15.50
2022-11-02T14:03:32.895Z,15.50
2022-11-02T14:06:03.827Z,15.50
2022-11-02T14:08:37.365Z,15.50
2022-11-02T14:11:23.658Z,15.40
2022-11-02T14:14:17.583Z,15.40
2022-11-02T14:16:47.777Z,15.40
2022-11-02T14:19:24.516Z,15.40
2022-11-02T14:22:10.981Z,15.40
2022-11-02T14:25:12.934Z,15.30
2022-11-02T14:27:40.840Z,15.40
2022-11-02T14:30:38.562Z,15.30
2022-11-02T14:33:12.364Z,15.40
2022-11-02T14:35:47.479Z,15.30
2022-11-02T14:38:40.848Z,15.40
2022-11-02T14:41:39.444Z,15.40
2022-11-02T14:44:37.546Z,15.40
2022-11-02T14:47:09.714Z,15.50
2022-11-02T14:49:41.529Z,15.40
2022-11-02T14:52:23.641Z,15.50
2022-11-02T14:54:57.175Z,15.50
2022-11-02T14:57:30.392Z,15.50
2022-11-02T15:00:01.366Z,15.50
2022-11-02T15:02:37.276Z,15.50
2022-11-02T15:05:09.769Z,15.50
2022-11-02T15:07:41.292Z,15.40
2022-11-02T15:10:43.661Z,15.40
2022-11-02T15:13:34.402Z,15.40
2022-11-02T15:16:23.458Z,15.30
2022-11-02T15:18:51.603Z,15.30
2022-11-02T15:21:37.211Z,15.30
2022-11-02T15:24:17.412Z,15.20
2022-11-02T15:26:51.904Z,15.20
2022-11-02T15:29:36.479Z,15.20
2022-11-02T15:32:05.680Z,15.20
2022-11-02T15:34:37.969Z,15.10
2022-11-02T15:37:06.808Z,15.00
2022-11-02T15:39:34.912Z,14.90
2022-11-02T15:42:16.262Z,14.90
2022-11-02T15:45:33.910Z,14.90
2022-11-02T15:48:21.178Z,14.90
2022-11-02T15:50:57.183Z,14.80
2022-11-02T15:53:57.622Z,14.80
2022-11-02T15:56:47.270Z,14.90
2022-11-02T15:59:56.802Z,14.90
2022-11-02T16:02:28.754Z,14.90
2022-11-02T16:04:59.318Z,14.90
2022-11-02T16:07:33.288Z,14.90
2022-11-02T16:10:24.584Z,14.90
2022-11-02T16:13:00.430Z,15.00
2022-11-02T16:15:29.293Z,15.00
2022-11-02T16:17:59.522Z,14.90
2022-11-02T16:20:29.186Z,14.90
2022-11-02T16:23:00.908Z,14.90
2022-11-02T16:25:38.497Z,14.80
2022-11-02T16:28:20.034Z,14.80
2022-11-02T16:31:13.586Z,14.70
2022-11-02T16:33:49.445Z,14.70
2022-11-02T16:36:19.740Z,14.60
2022-11-02T16:38:58.166Z,14.50
2022-11-02T16:41:27.572Z,14.50
2022-11-02T16:43:57.249Z,14.40
2022-11-02T16:46:31.342Z,14.40
2022-11-02T16:49:13.593Z,14.30
2022-11-02T16:51:41.828Z,14.30
2022-11-02T16:54:41.278Z,14.20
2022-11-02T16:57:16.813Z,14.20
2022-11-02T16:59:52.322Z,14.10
2022-11-02T17:02:24.573Z,14.10
2022-11-02T17:05:02.313Z,14.10
2022-11-02T17:07:37.024Z,14.10
2022-11-02T17:10:06.595Z,14.00
2022-11-02T17:12:37.966Z,14.00
2022-11-02T17:15:15.726Z,14.00
2022-11-02T17:17:43.679Z,14.00
2022-11-02T17:20:24.466Z,14.00
2022-11-02T17:22:56.294Z,14.00
2022-11-02T17:25:26.150Z,13.90
2022-11-02T17:27:55.545Z,13.90
2022-11-02T17:30:48.723Z,13.90
2022-11-02T17:33:28.690Z,13.90
2022-11-02T17:36:04.557Z,13.90
2022-11-02T17:38:33.256Z,13.90
2022-11-02T17:41:02.071Z,13.80
2022-11-02T17:43:29.096Z,13.80
2022-11-02T17:45:58.393Z,13.80
2022-11-02T17:48:28.447Z,13.80
2022-11-02T17:51:00.202Z,13.80
2022-11-02T17:53:28.537Z,13.80
2022-11-02T17:55:57.440Z,13.80
2022-11-02T17:58:25.334Z,13.70
2022-11-02T18:00:54.630Z,13.70
2022-11-02T18:03:29.811Z,13.70
2022-11-02T18:06:00.843Z,13.60
2022-11-02T18:08:28.959Z,13.60
2022-11-02T18:10:57.126Z,13.60
2022-11-02T18:13:25.302Z,13.60
2022-11-02T18:15:53.316Z,13.60
2022-11-02T18:18:21.245Z,13.60
2022-11-02T18:20:49.173Z,13.60
2022-11-02T18:23:19.806Z,13.50
2022-11-02T18:25:48.067Z,13.60
2022-11-02T18:28:15.932Z,13.50
2022-11-02T18:30:45.064Z,13.50
2022-11-02T18:33:14.283Z,13.50
2022-11-02T18:35:43.300Z,13.50
2022-11-02T18:38:11.695Z,13.50
2022-11-02T18:40:41.189Z,13.50
2022-11-02T18:43:09.721Z,13.50
2022-11-02T18:45:37.906Z,13.50
2022-11-02T18:48:06.839Z,13.50
2022-11-02T18:50:34.870Z,13.50
2022-11-02T18:53:02.780Z,13.50
2022-11-02T18:55:30.729Z,13.50
2022-11-02T18:57:59.960Z,13.40
2022-11-02T19:00:27.819Z,13.40
2022-11-02T19:02:55.776Z,13.40
2022-11-02T19:05:41.063Z,13.40
2022-11-02T19:08:28.357Z,13.40
2022-11-02T19:10:56.311Z,13.40
2022-11-02T19:13:25.540Z,13.40
2022-11-02T19:15:53.780Z,13.40
2022-11-02T19:18:21.629Z,13.40
2022-11-02T19:20:49.543Z,13.40
2022-11-02T19:23:17.511Z,13.40
2022-11-02T19:25:51.372Z,13.40
2022-11-02T19:28:19.330Z,13.40
2022-11-02T19:30:48.530Z,13.40
2022-11-02T19:33:16.429Z,13.40
2022-11-02T19:35:44.492Z,13.40
2022-11-02T19:38:12.372Z,13.40
2022-11-02T19:40:40.282Z,13.40
2022-11-02T19:43:08.495Z,13.40
2022-11-02T19:45:36.508Z,13.40
2022-11-02T19:48:06.157Z,13.40
2022-11-02T19:50:34.294Z,13.40
2022-11-02T19:53:02.228Z,13.40
2022-11-02T19:55:30.145Z,13.40
2022-11-02T19:57:58.199Z,13.40
2022-11-02T20:00:26.331Z,13.40
2022-11-02T20:02:54.400Z,13.40
2022-11-02T20:05:23.706Z,13.40
2022-11-02T20:07:52.765Z,13.40
2022-11-02T20:10:20.683Z,13.30
2022-11-02T20:12:48.600Z,13.40
2022-11-02T20:15:16.570Z,13.30
2022-11-02T20:18:05.581Z,13.40
2022-11-02T20:20:35.225Z,13.40
2022-11-02T20:23:03.489Z,13.30
2022-11-02T20:25:31.370Z,13.30
2022-11-02T20:27:59.323Z,13.30
2022-11-02T20:30:27.350Z,13.30
2022-11-02T20:32:55.237Z,13.40
2022-11-02T20:35:25.636Z,13.30
2022-11-02T20:37:54.857Z,13.30
2022-11-02T20:40:23.871Z,13.30
2022-11-02T20:42:51.826Z,13.30
2022-11-02T20:45:19.775Z,13.30
2022-11-02T20:47:47.625Z,13.30
2022-11-02T20:50:17.458Z,13.30
2022-11-02T20:52:46.611Z,13.30
2022-11-02T20:55:15.914Z,13.30
2022-11-02T20:57:43.762Z,13.30
2022-11-02T21:00:13.597Z,13.30
2022-11-02T21:02:41.443Z,13.30
2022-11-02T21:05:10.278Z,13.30
2022-11-02T21:07:38.139Z,13.30
2022-11-02T21:10:07.329Z,13.30
2022-11-02T21:12:54.350Z,13.30
2022-11-02T21:15:22.218Z,13.30
2022-11-02T21:17:50.123Z,13.30
2022-11-02T21:20:34.935Z,13.30
2022-11-02T21:23:03.523Z,13.30
2022-11-02T21:25:33.096Z,13.30
2022-11-02T21:28:02.900Z,13.30
2022-11-02T21:30:31.155Z,13.30
2022-11-02T21:32:59.184Z,13.30
2022-11-02T21:35:27.118Z,13.30
2022-11-02T21:38:01.264Z,13.30
2022-11-02T21:40:31.752Z,13.30
2022-11-02T21:42:59.678Z,13.30
2022-11-02T21:45:32.242Z,13.20
2022-11-02T21:48:04.677Z,13.20
2022-11-02T21:50:32.561Z,13.20
2022-11-02T21:53:00.422Z,13.20
2022-11-02T21:55:28.305Z,13.20
2022-11-02T21:57:56.151Z,13.20
2022-11-02T22:00:44.385Z,13.20
2022-11-02T22:03:13.099Z,13.20
2022-11-02T22:05:59.658Z,13.20
2022-11-02T22:08:44.200Z,13.20
2022-11-02T22:11:12.787Z,13.20
2022-11-02T22:13:42.036Z,13.20
2022-11-02T22:16:15.815Z,13.10
2022-11-02T22:18:46.420Z,13.10
2022-11-02T22:21:15.626Z,13.10
2022-11-02T22:23:45.399Z,13.10
2022-11-02T22:26:15.994Z,13.10
2022-11-02T22:28:44.901Z,13.20
2022-11-02T22:31:15.029Z,13.10
2022-11-02T22:33:45.353Z,13.10
2022-11-02T22:36:15.571Z,13.10
2022-11-02T22:38:51.554Z,13.10
2022-11-02T22:41:21.318Z,13.10
2022-11-02T22:43:50.579Z,13.10
2022-11-02T22:46:18.831Z,13.10
2022-11-02T22:48:48.096Z,13.10
2022-11-02T22:51:16.008Z,13.10
2022-11-02T22:53:43.894Z,13.10
2022-11-02T22:56:13.564Z,13.10
2022-11-02T22:58:42.916Z,13.10
2022-11-02T23:01:13.331Z,13.10
2022-11-02T23:03:41.408Z,13.10
2022-11-02T23:06:10.992Z,13.10
2022-11-02T23:08:40.772Z,13.10
2022-11-02T23:11:23.073Z,13.10
2022-11-02T23:13:53.463Z,13.00
2022-11-02T23:16:25.074Z,13.00
2022-11-02T23:19:22.042Z,13.00
2022-11-02T23:22:10.621Z,13.00
2022-11-02T23:24:56.558Z,13.00
2022-11-02T23:27:25.023Z,13.00
2022-11-02T23:30:10.483Z,13.00
2022-11-02T23:32:39.291Z,13.00
2022-11-02T23:35:25.224Z,13.00
2022-11-02T23:38:03.891Z,13.00
2022-11-02T23:40:32.714Z,13.00
2022-11-02T23:43:00.709Z,13.00
2022-11-02T23:45:28.618Z,13.00
2022-11-02T23:48:00.997Z,13.00
2022-11-02T23:50:49.549Z,13.00
2022-11-02T23:53:38.079Z,13.00
2022-11-02T23:56:25.339Z,13.00
2022-11-02T23:59:07.182Z,12.90
